sensor_id;sensor_type;location;lat;lon;timestamp;temperature;humidity
16253;DHT22;8234;41.480;2.306;2023-01-10T00:03:52;10.20;99.90
16253;DHT22;8234;41.480;2.306;2023-01-10T00:13:57;10.30;99.90
16253;DHT22;8234;41.480;2.306;2023-01-10T00:24:02;10.20;99.90
16253;DHT22;8234;41.480;2.306;2023-01-10T00:34:19;10.30;99.90
16253;DHT22;8234;41.480;2.306;2023-01-10T00:44:25;9.90;99.90
16253;DHT22;8234;41.480;2.306;2023-01-10T00:54:30;9.80;99.90
16253;DHT22;8234;41.480;2.306;2023-01-10T01:04:35;9.40;99.90
16253;DHT22;8234;41.480;2.306;2023-01-10T01:14:39;9.50;99.90
16253;DHT22;8234;41.480;2.306;2023-01-10T01:24:45;9.10;99.90
16253;DHT22;8234;41.480;2.306;2023-01-10T01:34:49;8.80;99.90
16253;DHT22;8234;41.480;2.306;2023-01-10T01:45:31;8.90;99.90
16253;DHT22;8234;41.480;2.306;2023-01-10T01:55:36;8.60;99.90
16253;DHT22;8234;41.480;2.306;2023-01-10T02:05:44;8.20;99.90
16253;DHT22;8234;41.480;2.306;2023-01-10T02:15:48;8.70;99.90
16253;DHT22;8234;41.480;2.306;2023-01-10T02:26:23;8.60;99.90
16253;DHT22;8234;41.480;2.306;2023-01-10T02:36:39;9.00;99.90
16253;DHT22;8234;41.480;2.306;2023-01-10T02:46:46;9.30;99.90
16253;DHT22;8234;41.480;2.306;2023-01-10T02:57:14;8.60;99.90
16253;DHT22;8234;41.480;2.306;2023-01-10T03:07:24;8.10;99.90
16253;DHT22;8234;41.480;2.306;2023-01-10T03:17:30;8.00;99.90
16253;DHT22;8234;41.480;2.306;2023-01-10T03:27:38;7.70;99.90
16253;DHT22;8234;41.480;2.306;2023-01-10T03:37:53;7.50;99.90
16253;DHT22;8234;41.480;2.306;2023-01-10T03:48:00;7.90;99.90
16253;DHT22;8234;41.480;2.306;2023-01-10T03:58:06;8.00;99.90
16253;DHT22;8234;41.480;2.306;2023-01-10T04:08:10;7.50;99.90
16253;DHT22;8234;41.480;2.306;2023-01-10T04:18:15;7.50;99.90
16253;DHT22;8234;41.480;2.306;2023-01-10T04:28:20;7.60;99.90
16253;DHT22;8234;41.480;2.306;2023-01-10T04:38:27;7.90;99.90
16253;DHT22;8234;41.480;2.306;2023-01-10T04:48:31;7.90;99.90
16253;DHT22;8234;41.480;2.306;2023-01-10T04:58:37;7.80;99.90
16253;DHT22;8234;41.480;2.306;2023-01-10T05:08:41;7.90;99.90
16253;DHT22;8234;41.480;2.306;2023-01-10T05:18:46;8.00;99.90
16253;DHT22;8234;41.480;2.306;2023-01-10T05:28:50;8.00;99.90
16253;DHT22;8234;41.480;2.306;2023-01-10T05:38:55;8.00;99.90
16253;DHT22;8234;41.480;2.306;2023-01-10T05:49:00;8.00;99.90
16253;DHT22;8234;41.480;2.306;2023-01-10T05:59:05;8.20;99.90
16253;DHT22;8234;41.480;2.306;2023-01-10T06:09:28;8.20;99.90
16253;DHT22;8234;41.480;2.306;2023-01-10T06:19:33;8.00;99.90
16253;DHT22;8234;41.480;2.306;2023-01-10T06:29:37;8.10;99.90
16253;DHT22;8234;41.480;2.306;2023-01-10T06:39:42;8.10;99.90
16253;DHT22;8234;41.480;2.306;2023-01-10T06:49:48;8.00;99.90
16253;DHT22;8234;41.480;2.306;2023-01-10T06:59:53;8.00;99.90
16253;DHT22;8234;41.480;2.306;2023-01-10T07:09:57;8.10;99.90
16253;DHT22;8234;41.480;2.306;2023-01-10T07:20:02;8.10;99.90
16253;DHT22;8234;41.480;2.306;2023-01-10T07:30:08;8.10;99.90
16253;DHT22;8234;41.480;2.306;2023-01-10T07:40:13;8.20;99.90
16253;DHT22;8234;41.480;2.306;2023-01-10T07:50:17;8.30;99.90
16253;DHT22;8234;41.480;2.306;2023-01-10T08:00:23;8.50;99.90
16253;DHT22;8234;41.480;2.306;2023-01-10T08:10:27;8.60;99.90
16253;DHT22;8234;41.480;2.306;2023-01-10T08:20:32;8.90;99.90
16253;DHT22;8234;41.480;2.306;2023-01-10T08:30:36;9.30;99.90
16253;DHT22;8234;41.480;2.306;2023-01-10T08:40:42;9.50;99.90
16253;DHT22;8234;41.480;2.306;2023-01-10T08:50:45;9.60;99.90
16253;DHT22;8234;41.480;2.306;2023-01-10T09:00:51;10.30;99.90
16253;DHT22;8234;41.480;2.306;2023-01-10T09:10:57;11.00;99.90
16253;DHT22;8234;41.480;2.306;2023-01-10T09:21:03;11.60;99.90
16253;DHT22;8234;41.480;2.306;2023-01-10T09:31:06;11.40;99.90
16253;DHT22;8234;41.480;2.306;2023-01-10T09:41:31;11.70;99.90
16253;DHT22;8234;41.480;2.306;2023-01-10T09:51:40;12.60;99.90
16253;DHT22;8234;41.480;2.306;2023-01-10T10:01:47;12.50;99.90
16253;DHT22;8234;41.480;2.306;2023-01-10T10:12:13;12.60;99.90
16253;DHT22;8234;41.480;2.306;2023-01-10T10:22:33;13.00;99.90
16253;DHT22;8234;41.480;2.306;2023-01-10T10:32:48;13.50;99.90
16253;DHT22;8234;41.480;2.306;2023-01-10T10:42:55;14.30;99.90
16253;DHT22;8234;41.480;2.306;2023-01-10T10:53:02;15.30;99.90
16253;DHT22;8234;41.480;2.306;2023-01-10T11:03:18;14.60;99.90
16253;DHT22;8234;41.480;2.306;2023-01-10T11:13:39;14.50;99.90
16253;DHT22;8234;41.480;2.306;2023-01-10T11:23:52;14.80;99.90
16253;DHT22;8234;41.480;2.306;2023-01-10T11:33:56;15.40;99.90
16253;DHT22;8234;41.480;2.306;2023-01-10T11:44:17;15.80;99.90
16253;DHT22;8234;41.480;2.306;2023-01-10T11:54:24;16.70;99.90
16253;DHT22;8234;41.480;2.306;2023-01-10T12:04:32;18.00;99.90
16253;DHT22;8234;41.480;2.306;2023-01-10T12:14:37;17.60;99.90
16253;DHT22;8234;41.480;2.306;2023-01-10T12:24:44;19.30;99.90
16253;DHT22;8234;41.480;2.306;2023-01-10T12:34:54;20.20;99.90
16253;DHT22;8234;41.480;2.306;2023-01-10T12:45:04;19.20;99.90
16253;DHT22;8234;41.480;2.306;2023-01-10T12:55:12;19.10;99.90
16253;DHT22;8234;41.480;2.306;2023-01-10T13:05:20;18.90;99.90
16253;DHT22;8234;41.480;2.306;2023-01-10T13:15:28;19.20;99.90
16253;DHT22;8234;41.480;2.306;2023-01-10T13:25:35;19.20;99.90
16253;DHT22;8234;41.480;2.306;2023-01-10T13:35:43;19.20;99.90
16253;DHT22;8234;41.480;2.306;2023-01-10T13:46:38;19.00;99.90
16253;DHT22;8234;41.480;2.306;2023-01-10T13:56:43;19.30;99.90
16253;DHT22;8234;41.480;2.306;2023-01-10T14:06:53;19.20;99.90
16253;DHT22;8234;41.480;2.306;2023-01-10T14:17:10;19.00;99.90
16253;DHT22;8234;41.480;2.306;2023-01-10T14:27:29;19.70;99.90
16253;DHT22;8234;41.480;2.306;2023-01-10T14:37:39;20.90;99.90
16253;DHT22;8234;41.480;2.306;2023-01-10T14:47:46;21.90;99.90
16253;DHT22;8234;41.480;2.306;2023-01-10T14:57:55;20.20;99.90
16253;DHT22;8234;41.480;2.306;2023-01-10T15:08:18;18.10;99.90
16253;DHT22;8234;41.480;2.306;2023-01-10T15:18:31;18.10;99.90
16253;DHT22;8234;41.480;2.306;2023-01-10T15:28:38;18.50;99.90
16253;DHT22;8234;41.480;2.306;2023-01-10T15:38:44;19.40;99.90
16253;DHT22;8234;41.480;2.306;2023-01-10T15:48:57;19.00;99.90
16253;DHT22;8234;41.480;2.306;2023-01-10T15:59:04;17.30;99.90
16253;DHT22;8234;41.480;2.306;2023-01-10T16:09:19;17.00;99.90
16253;DHT22;8234;41.480;2.306;2023-01-10T16:19:23;15.50;99.90
16253;DHT22;8234;41.480;2.306;2023-01-10T16:29:28;14.60;99.90
16253;DHT22;8234;41.480;2.306;2023-01-10T16:39:32;14.50;99.90
16253;DHT22;8234;41.480;2.306;2023-01-10T16:49:37;14.00;99.90
16253;DHT22;8234;41.480;2.306;2023-01-10T16:59:42;13.60;99.90
16253;DHT22;8234;41.480;2.306;2023-01-10T17:09:48;12.60;99.90
16253;DHT22;8234;41.480;2.306;2023-01-10T17:19:52;12.10;99.90
16253;DHT22;8234;41.480;2.306;2023-01-10T17:29:57;11.80;99.90
16253;DHT22;8234;41.480;2.306;2023-01-10T17:40:01;11.30;99.90
16253;DHT22;8234;41.480;2.306;2023-01-10T17:50:07;11.20;99.90
16253;DHT22;8234;41.480;2.306;2023-01-10T18:00:11;11.00;99.90
16253;DHT22;8234;41.480;2.306;2023-01-10T18:10:17;10.80;99.90
16253;DHT22;8234;41.480;2.306;2023-01-10T18:20:21;10.50;99.90
16253;DHT22;8234;41.480;2.306;2023-01-10T18:30:26;10.20;99.90
16253;DHT22;8234;41.480;2.306;2023-01-10T18:40:30;10.10;99.90
16253;DHT22;8234;41.480;2.306;2023-01-10T18:50:36;9.60;99.90
16253;DHT22;8234;41.480;2.306;2023-01-10T19:00:41;9.70;99.90
16253;DHT22;8234;41.480;2.306;2023-01-10T19:10:46;9.70;99.90
16253;DHT22;8234;41.480;2.306;2023-01-10T19:21:10;9.70;99.90
16253;DHT22;8234;41.480;2.306;2023-01-10T19:31:20;9.80;99.90
16253;DHT22;8234;41.480;2.306;2023-01-10T19:41:25;9.40;99.90
16253;DHT22;8234;41.480;2.306;2023-01-10T19:51:34;9.30;99.90
16253;DHT22;8234;41.480;2.306;2023-01-10T20:01:39;9.10;99.90
16253;DHT22;8234;41.480;2.306;2023-01-10T20:11:44;8.90;99.90
16253;DHT22;8234;41.480;2.306;2023-01-10T20:21:48;9.10;99.90
16253;DHT22;8234;41.480;2.306;2023-01-10T20:31:54;9.20;99.90
16253;DHT22;8234;41.480;2.306;2023-01-10T20:42:02;9.20;99.90
16253;DHT22;8234;41.480;2.306;2023-01-10T20:52:10;9.10;99.90
16253;DHT22;8234;41.480;2.306;2023-01-10T21:02:14;9.10;99.90
16253;DHT22;8234;41.480;2.306;2023-01-10T21:12:20;9.00;99.90
16253;DHT22;8234;41.480;2.306;2023-01-10T21:22:28;9.70;99.90
16253;DHT22;8234;41.480;2.306;2023-01-10T21:32:34;10.00;99.90
16253;DHT22;8234;41.480;2.306;2023-01-10T21:42:38;9.80;99.90
16253;DHT22;8234;41.480;2.306;2023-01-10T21:52:47;9.30;99.90
16253;DHT22;8234;41.480;2.306;2023-01-10T22:02:51;9.90;99.90
16253;DHT22;8234;41.480;2.306;2023-01-10T22:12:56;10.90;99.90
16253;DHT22;8234;41.480;2.306;2023-01-10T22:23:00;10.80;99.90
16253;DHT22;8234;41.480;2.306;2023-01-10T22:33:05;10.30;99.90
16253;DHT22;8234;41.480;2.306;2023-01-10T22:43:09;10.30;99.90
16253;DHT22;8234;41.480;2.306;2023-01-10T22:53:14;10.10;99.90
16253;DHT22;8234;41.480;2.306;2023-01-10T23:03:18;10.40;99.90
16253;DHT22;8234;41.480;2.306;2023-01-10T23:13:24;10.40;99.90
16253;DHT22;8234;41.480;2.306;2023-01-10T23:23:28;9.90;99.90
16253;DHT22;8234;41.480;2.306;2023-01-10T23:33:33;10.80;99.90
16253;DHT22;8234;41.480;2.306;2023-01-10T23:43:37;11.00;99.90
16253;DHT22;8234;41.480;2.306;2023-01-10T23:53:42;10.80;99.90
